Cargèse

FR-0639 · South Corsica, Corsica, Francja

Historia METAR FR-0639 · Cargèse

Poniżej widzisz METAR-y z ostatnich kilku dni. Wybierz rok, aby przeglądać starsze METAR-y, począwszy od roku 2007.

19 lipca 2024

Czas Kod Pogoda Temp. Widoczność Sufit Wiatr METAR/SPECI
17:30
V
31 °C 10 km+ - 180° 180° 13 kt METAR LFKJ 191530Z AUTO 18013KT 140V210 CAVOK 31/22 Q1015 NOSIG
17:00
V
30 °C 10 km+ - 190° 190° 9 kt METAR LFKJ 191500Z AUTO 19009KT CAVOK 30/22 Q1014 NOSIG
16:30
V
30 °C 10 km+ - 210° 210° 10 kt METAR LFKJ 191430Z AUTO 21010KT CAVOK 30/22 Q1014 NOSIG
16:00
V
30 °C 10 km+ - 210° 210° 11 kt METAR LFKJ 191400Z AUTO 21011KT CAVOK 30/23 Q1014 NOSIG
15:30
V
30 °C 10 km+ - 220° 220° 11 kt METAR LFKJ 191330Z AUTO 22011KT CAVOK 30/23 Q1015 NOSIG
15:00
V
30 °C 10 km+ - 210° 210° 11 kt METAR LFKJ 191300Z AUTO 21011KT CAVOK 30/22 Q1015 NOSIG
14:30
V
31 °C 10 km+ - 200° 200° 11 kt METAR LFKJ 191230Z AUTO 20011KT CAVOK 31/22 Q1016 NOSIG
14:00
V
30 °C 10 km+ - 200° 200° 11 kt METAR LFKJ 191200Z AUTO 20011KT CAVOK 30/23 Q1016 NOSIG
13:30
V
30 °C 10 km+ - 190° 190° 12 kt METAR LFKJ 191130Z AUTO 19012KT CAVOK 30/23 Q1016 NOSIG
13:00
V
30 °C 10 km+ - 200° 200° 13 kt METAR LFKJ 191100Z AUTO 20013KT CAVOK 30/23 Q1017 NOSIG
12:30
V
30 °C 10 km+ - 220° 220° 12 kt METAR LFKJ 191030Z AUTO 22012KT CAVOK 30/23 Q1017 NOSIG
12:00
V
29 °C 10 km+ - 230° 230° 9 kt METAR LFKJ 191000Z AUTO 23009KT CAVOK 29/22 Q1017 NOSIG
11:30
V
28 °C 10 km+ - 230° 230° 7 kt METAR LFKJ 190930Z AUTO 23007KT CAVOK 28/21 Q1017 NOSIG
11:00
V
28 °C 10 km+ - 220° 220° 7 kt METAR LFKJ 190900Z AUTO 22007KT CAVOK 28/21 Q1017 NOSIG
10:30
V
28 °C 10 km+ - 230° 230° 8 kt METAR LFKJ 190830Z AUTO 23008KT CAVOK 28/20 Q1017 NOSIG
10:00
V
28 °C 10 km+ - 240° 240° 6 kt METAR LFKJ 190800Z AUTO 24006KT CAVOK 28/18 Q1017 NOSIG
09:30
V
28 °C 10 km+ - 240° 240° 3 kt METAR LFKJ 190730Z AUTO 24003KT CAVOK 28/16 Q1017 NOSIG
09:00
V
28 °C 10 km+ - Var Var 1 kt METAR LFKJ 190700Z AUTO VRB01KT CAVOK 28/16 Q1017 BECMG 21012KT
08:30
V
25 °C 10 km+ - 040° 040° 3 kt METAR LFKJ 190630Z AUTO 04003KT 010V080 CAVOK 25/17 Q1017 BECMG 21012KT
08:00
V
23 °C 10 km+ - 050° 050° 4 kt METAR LFKJ 190600Z AUTO 05004KT CAVOK 23/17 Q1017 BECMG 21012KT
07:30
V
21 °C 10 km+ - 060° 060° 4 kt METAR LFKJ 190530Z AUTO 06004KT CAVOK 21/17 Q1017 BECMG 21012KT
07:00
V
20 °C 10 km+ - 050° 050° 4 kt METAR LFKJ 190500Z AUTO 05004KT CAVOK 20/16 Q1017 NOSIG
06:30
V
19 °C 10 km+ - 040° 040° 4 kt METAR LFKJ 190430Z AUTO 04004KT 350V050 CAVOK 19/16 Q1017 NOSIG
06:00
V
19 °C 10 km+ - 040° 040° 4 kt METAR LFKJ 190400Z AUTO 04004KT CAVOK 19/16 Q1016 NOSIG
05:30
V
20 °C 10 km+ - 060° 060° 5 kt METAR LFKJ 190330Z AUTO 06005KT CAVOK 20/16 Q1016 NOSIG
05:00
V
19 °C 10 km+ - 050° 050° 6 kt METAR LFKJ 190300Z AUTO 05006KT CAVOK 19/16 Q1016 NOSIG
04:30
V
19 °C 10 km+ - 050° 050° 6 kt METAR LFKJ 190230Z AUTO 05006KT CAVOK 19/16 Q1017 NOSIG
04:00
V
20 °C 10 km+ - 050° 050° 4 kt METAR LFKJ 190200Z AUTO 05004KT CAVOK 20/16 Q1017 NOSIG
03:30
V
20 °C 10 km+ - 050° 050° 6 kt METAR LFKJ 190130Z AUTO 05006KT CAVOK 20/17 Q1017 NOSIG
03:00
V
20 °C 10 km+ - 060° 060° 5 kt METAR LFKJ 190100Z AUTO 06005KT CAVOK 20/17 Q1017 NOSIG
02:30
V
20 °C 10 km+ - 050° 050° 6 kt METAR LFKJ 190030Z AUTO 05006KT CAVOK 20/17 Q1017 NOSIG
02:00
V
20 °C 10 km+ - 060° 060° 5 kt METAR LFKJ 190000Z AUTO 06005KT CAVOK 20/17 Q1017 NOSIG
01:30
V
21 °C 10 km+ - 050° 050° 5 kt METAR LFKJ 182330Z AUTO 05005KT CAVOK 21/17 Q1017 NOSIG
01:00
V
21 °C 10 km+ - Var Var 3 kt METAR LFKJ 182300Z AUTO VRB03KT CAVOK 21/17 Q1017 NOSIG
00:30
V
22 °C 10 km+ - 050° 050° 3 kt METAR LFKJ 182230Z AUTO 05003KT 020V080 CAVOK 22/17 Q1017 NOSIG
00:00
V
22 °C 10 km+ - 060° 060° 3 kt METAR LFKJ 182200Z AUTO 06003KT CAVOK 22/18 Q1017 NOSIG

18 lipca 2024

Czas Kod Pogoda Temp. Widoczność Sufit Wiatr METAR/SPECI
23:30
V
23 °C 10 km+ - 060° 060° 2 kt METAR LFKJ 182130Z AUTO 06002KT CAVOK 23/19 Q1017 NOSIG
23:00
V
23 °C 10 km+ - 060° 060° 4 kt METAR LFKJ 182100Z AUTO 06004KT CAVOK 23/19 Q1017 NOSIG
22:30
V
24 °C 10 km+ - 050° 050° 4 kt METAR LFKJ 182030Z AUTO 05004KT CAVOK 24/19 Q1017 NOSIG
22:00
V
25 °C 10 km+ - 020° 020° 3 kt METAR LFKJ 182000Z AUTO 02003KT CAVOK 25/19 Q1017 NOSIG
21:30
V
26 °C 10 km+ - Var Var 1 kt METAR LFKJ 181930Z AUTO VRB01KT CAVOK 26/21 Q1017 NOSIG
21:00
V
26 °C 10 km+ - 200° 200° 4 kt METAR LFKJ 181900Z AUTO 20004KT CAVOK 26/21 Q1017 NOSIG
20:30
V
27 °C 10 km+ - 210° 210° 7 kt METAR LFKJ 181830Z AUTO 21007KT CAVOK 27/21 Q1017 NOSIG
20:00
V
28 °C 10 km+ - 210° 210° 6 kt METAR LFKJ 181800Z AUTO 21006KT CAVOK 28/20 Q1017 NOSIG
19:30
V
29 °C 10 km+ - 210° 210° 5 kt METAR LFKJ 181730Z AUTO 21005KT CAVOK 29/19 Q1016 NOSIG
19:00
V
29 °C 10 km+ - 210° 210° 7 kt METAR LFKJ 181700Z AUTO 21007KT CAVOK 29/20 Q1016 NOSIG
18:30
V
29 °C 10 km+ - 220° 220° 7 kt METAR LFKJ 181630Z AUTO 22007KT CAVOK 29/20 Q1016 NOSIG
18:00
V
29 °C 10 km+ - 220° 220° 7 kt METAR LFKJ 181600Z AUTO 22007KT CAVOK 29/22 Q1016 NOSIG
17:30
V
29 °C 10 km+ - 220° 220° 8 kt METAR LFKJ 181530Z AUTO 22008KT 190V250 CAVOK 29/21 Q1017 NOSIG
17:00
V
29 °C 10 km+ - 210° 210° 9 kt METAR LFKJ 181500Z AUTO 21009KT CAVOK 29/21 Q1017 NOSIG
16:30
V
29 °C 10 km+ - 220° 220° 9 kt METAR LFKJ 181430Z AUTO 22009KT CAVOK 29/21 Q1017 NOSIG
16:00
V
30 °C 10 km+ - 220° 220° 11 kt METAR LFKJ 181400Z AUTO 22011KT CAVOK 30/21 Q1017 NOSIG
15:30
V
30 °C 10 km+ - 210° 210° 11 kt METAR LFKJ 181330Z AUTO 21011KT CAVOK 30/21 Q1018 NOSIG
15:00
V
30 °C 10 km+ - 210° 210° 12 kt METAR LFKJ 181300Z AUTO 21012KT CAVOK 30/21 Q1018 NOSIG
14:30
V
30 °C 10 km+ - 210° 210° 13 kt METAR LFKJ 181230Z AUTO 21013KT CAVOK 30/21 Q1018 NOSIG
14:00
V
29 °C 10 km+ - 210° 210° 12 kt METAR LFKJ 181200Z AUTO 21012KT CAVOK 29/21 Q1018 NOSIG
13:30
V
29 °C 10 km+ - 210° 210° 13 kt METAR LFKJ 181130Z AUTO 21013KT CAVOK 29/21 Q1017 NOSIG
13:00
V
29 °C 10 km+ - 220° 220° 13 kt METAR LFKJ 181100Z AUTO 22013KT CAVOK 29/21 Q1017 NOSIG
12:30
V
29 °C 10 km+ - 220° 220° 10 kt METAR LFKJ 181030Z AUTO 22010KT CAVOK 29/22 Q1017 NOSIG
12:00
V
28 °C 10 km+ - 230° 230° 8 kt METAR LFKJ 181000Z AUTO 23008KT 210V270 CAVOK 28/21 Q1017 NOSIG
11:30
V
28 °C 10 km+ - 230° 230° 8 kt METAR LFKJ 180930Z AUTO 23008KT CAVOK 28/21 Q1017 NOSIG
11:00
V
27 °C 10 km+ - 240° 240° 7 kt METAR LFKJ 180900Z AUTO 24007KT CAVOK 27/21 Q1017 NOSIG
10:30
V
27 °C 10 km+ - 240° 240° 6 kt METAR LFKJ 180830Z AUTO 24006KT CAVOK 27/20 Q1017 BECMG 23015G25KT
10:00
V
27 °C 10 km+ - 220° 220° 6 kt METAR LFKJ 180800Z AUTO 22006KT CAVOK 27/18 Q1017 BECMG 23015G25KT
09:30
V
26 °C 10 km+ - 240° 240° 5 kt METAR LFKJ 180730Z AUTO 24005KT CAVOK 26/20 Q1017 BECMG 23015G25KT
09:00
V
26 °C 10 km+ - Var Var 2 kt METAR LFKJ 180700Z AUTO VRB02KT CAVOK 26/17 Q1017 BECMG 23015G25KT
08:30
V
24 °C 10 km+ - Var Var 2 kt METAR LFKJ 180630Z AUTO VRB02KT CAVOK 24/17 Q1017 BECMG 23015G25KT
08:00
V
22 °C 10 km+ - 040° 040° 4 kt METAR LFKJ 180600Z AUTO 04004KT CAVOK 22/17 Q1017 NOSIG
07:30
V
21 °C 10 km+ - 050° 050° 5 kt METAR LFKJ 180530Z AUTO 05005KT 030V090 CAVOK 21/17 Q1017 NOSIG
07:00
V
19 °C 10 km+ - 050° 050° 6 kt METAR LFKJ 180500Z AUTO 05006KT CAVOK 19/17 Q1017 NOSIG
06:30
V
19 °C 10 km+ - 050° 050° 7 kt METAR LFKJ 180430Z AUTO 05007KT CAVOK 19/17 Q1017 NOSIG
06:00
V
19 °C 10 km+ - 050° 050° 6 kt METAR LFKJ 180400Z AUTO 05006KT CAVOK 19/17 Q1017 NOSIG
05:30
V
20 °C 10 km+ - 060° 060° 3 kt METAR LFKJ 180330Z AUTO 06003KT CAVOK 20/17 Q1017 NOSIG
05:00
V
20 °C 10 km+ - 070° 070° 5 kt METAR LFKJ 180300Z AUTO 07005KT CAVOK 20/17 Q1017 NOSIG
04:30
V
21 °C 10 km+ - 050° 050° 5 kt METAR LFKJ 180230Z AUTO 05005KT 9999 FEW011 21/17 Q1016 NOSIG
04:00
M
21 °C 10 km+ 1.200 ft 060° 060° 5 kt METAR LFKJ 180200Z AUTO 06005KT 9999 OVC012 21/18 Q1016 BECMG NSC
03:30
M
21 °C 10 km+ 1.200 ft 050° 050° 5 kt METAR LFKJ 180130Z AUTO 05005KT 9999 OVC012 21/18 Q1017 BECMG NSC
03:00
M
21 °C 10 km+ 1.200 ft 050° 050° 6 kt METAR LFKJ 180100Z AUTO 05006KT 9999 BKN012 21/18 Q1017 BECMG NSC
02:30
V
21 °C 10 km+ - 060° 060° 5 kt METAR LFKJ 180030Z AUTO 06005KT CAVOK 21/18 Q1017 NOSIG
02:00
V
21 °C 10 km+ - 050° 050° 5 kt METAR LFKJ 180000Z AUTO 05005KT 9999 FEW010 21/18 Q1017 NOSIG
01:30
I
22 °C 10 km+ 900 ft Var Var 3 kt METAR LFKJ 172330Z AUTO VRB03KT 9999 BKN009 22/19 Q1017 BECMG NSC
01:00
V
22 °C 10 km+ - 110° 110° 4 kt METAR LFKJ 172300Z AUTO 11004KT CAVOK 22/19 Q1017 NOSIG
00:30
V
22 °C 10 km+ - 040° 040° 5 kt METAR LFKJ 172230Z AUTO 04005KT CAVOK 22/19 Q1016 NOSIG
00:00
V
22 °C 10 km+ - 060° 060° 7 kt METAR LFKJ 172200Z AUTO 06007KT 020V080 CAVOK 22/20 Q1016 NOSIG

17 lipca 2024

Czas Kod Pogoda Temp. Widoczność Sufit Wiatr METAR/SPECI
23:30
V
24 °C 10 km+ - 030° 030° 5 kt METAR LFKJ 172130Z AUTO 03005KT CAVOK 24/21 Q1016 NOSIG
23:00
V
24 °C 10 km+ - Var Var 2 kt METAR LFKJ 172100Z AUTO VRB02KT 9999 FEW008 24/22 Q1017 NOSIG
22:30
V
24 °C 10 km+ - 170° 170° 2 kt METAR LFKJ 172030Z AUTO 17002KT 9999 FEW008 24/21 Q1016 NOSIG
22:00
V
24 °C 10 km+ - 040° 040° 3 kt METAR LFKJ 172000Z AUTO 04003KT CAVOK 24/21 Q1016 NOSIG
21:30
V
25 °C 10 km+ - Var Var 1 kt METAR LFKJ 171930Z AUTO VRB01KT CAVOK 25/23 Q1016 NOSIG
21:00
V
26 °C 10 km+ - 220° 220° 4 kt METAR LFKJ 171900Z AUTO 22004KT CAVOK 26/23 Q1015 NOSIG
20:30
V
26 °C 10 km+ - 220° 220° 6 kt METAR LFKJ 171830Z AUTO 22006KT CAVOK 26/23 Q1015 NOSIG
20:00
V
27 °C 10 km+ - 200° 200° 7 kt METAR LFKJ 171800Z AUTO 20007KT CAVOK 27/23 Q1015 NOSIG
19:30
V
28 °C 10 km+ - 190° 190° 8 kt METAR LFKJ 171730Z AUTO 19008KT CAVOK 28/23 Q1015 NOSIG
19:00
V
28 °C 10 km+ - 190° 190° 10 kt METAR LFKJ 171700Z AUTO 19010KT CAVOK 28/23 Q1015 NOSIG
18:30
V
29 °C 10 km+ - 200° 200° 12 kt METAR LFKJ 171630Z AUTO 20012KT CAVOK 29/23 Q1015 NOSIG
18:00
V
29 °C 10 km+ - 200° 200° 10 kt METAR LFKJ 171600Z AUTO 20010KT CAVOK 29/23 Q1015 NOSIG
17:30
V
29 °C 10 km+ - 190° 190° 10 kt METAR LFKJ 171530Z AUTO 19010KT CAVOK 29/23 Q1015 NOSIG
17:00
V
29 °C 10 km+ - 200° 200° 11 kt METAR LFKJ 171500Z AUTO 20011KT CAVOK 29/23 Q1015 NOSIG
16:30
V
30 °C 10 km+ - 200° 200° 12 kt METAR LFKJ 171430Z AUTO 20012KT CAVOK 30/24 Q1015 NOSIG
16:00
V
30 °C 10 km+ - 200° 200° 12 kt METAR LFKJ 171400Z AUTO 20012KT CAVOK 30/23 Q1015 NOSIG
15:30
V
30 °C 10 km+ - 210° 210° 11 kt METAR LFKJ 171330Z AUTO 21011KT CAVOK 30/23 Q1015 NOSIG
15:00
V
30 °C 10 km+ - 210° 210° 11 kt METAR LFKJ 171300Z AUTO 21011KT CAVOK 30/24 Q1015 NOSIG
14:30
V
30 °C 10 km+ - 210° 210° 11 kt METAR LFKJ 171230Z AUTO 21011KT CAVOK 30/24 Q1015 NOSIG
14:00
V
30 °C 10 km+ - 210° 210° 10 kt METAR LFKJ 171200Z AUTO 21010KT CAVOK 30/23 Q1016 NOSIG
13:30
V
30 °C 10 km+ - 210° 210° 10 kt METAR LFKJ 171130Z AUTO 21010KT CAVOK 30/23 Q1016 NOSIG
13:00
V
29 °C 10 km+ - 220° 220° 10 kt METAR LFKJ 171100Z AUTO 22010KT CAVOK 29/23 Q1016 NOSIG
12:30
V
29 °C 10 km+ - 230° 230° 10 kt METAR LFKJ 171030Z AUTO 23010KT CAVOK 29/23 Q1016 NOSIG
12:00
V
29 °C 10 km+ - 210° 210° 8 kt METAR LFKJ 171000Z AUTO 21008KT CAVOK 29/23 Q1016 NOSIG
11:30
V
28 °C 10 km+ - 220° 220° 9 kt METAR LFKJ 170930Z AUTO 22009KT CAVOK 28/23 Q1016 NOSIG
11:00
V
28 °C 10 km+ - 220° 220° 9 kt METAR LFKJ 170900Z AUTO 22009KT CAVOK 28/23 Q1016 NOSIG
10:30
V
28 °C 10 km+ - 210° 210° 8 kt METAR LFKJ 170830Z AUTO 21008KT CAVOK 28/20 Q1016 NOSIG
10:00
V
27 °C 10 km+ - 210° 210° 7 kt METAR LFKJ 170800Z AUTO 21007KT CAVOK 27/19 Q1016 NOSIG
09:30
V
27 °C 10 km+ - 230° 230° 5 kt METAR LFKJ 170730Z AUTO 23005KT CAVOK 27/18 Q1015 NOSIG
09:00
V
28 °C 10 km+ - Var Var 2 kt METAR LFKJ 170700Z AUTO VRB02KT CAVOK 28/16 Q1016 NOSIG
08:30
V
25 °C 10 km+ - Var Var 3 kt METAR LFKJ 170630Z AUTO VRB03KT CAVOK 25/18 Q1016 NOSIG
08:00
V
23 °C 10 km+ - 060° 060° 4 kt METAR LFKJ 170600Z AUTO 06004KT 020V090 CAVOK 23/17 Q1015 NOSIG
Zgłoś zmianę